Time;durP1;ratioP1;P1;durP2;ratioP2;P2;SDS_P1;SDS_P2;PMS_P1;PMS_P2;Temp;Humidity;BMP_temperature;BMP_pressure;BME280_temperature;BME280_humidity;BME280_pressure;Samples;Min_cycle;Max_cycle;Signal;HPM_P1;HPM_P2
2021/12/18 00:01:23;;;;;;;14.13;7.80;;;;;;;;;;5044876;28;20132;-63
2021/12/18 00:03:50;;;;;;;12.23;6.95;;;;;;;;;;5062842;28;20056;-63
2021/12/18 00:06:16;;;;;;;14.10;7.55;;;;;;;;;;5048282;28;20053;-63
2021/12/18 00:08:43;;;;;;;13.00;7.22;;;;;;;;;;5045486;28;20124;-63
2021/12/18 00:11:10;;;;;;;12.50;7.10;;;;;;;;;;5057587;28;20070;-63
2021/12/18 00:13:37;;;;;;;13.73;7.25;;;;;;;;;;5059617;28;20048;-63
2021/12/18 00:16:03;;;;;;;13.63;7.07;;;;;;;;;;5060374;28;20048;-63
2021/12/18 00:18:30;;;;;;;12.88;7.22;;;;;;;;;;5061300;28;20049;-63
2021/12/18 00:20:58;;;;;;;11.55;6.95;;;;;;;;;;5059006;28;20043;-63
2021/12/18 00:23:25;;;;;;;12.13;7.37;;;;;;;;;;5062554;28;20075;-63
2021/12/18 00:25:51;;;;;;;10.90;6.55;;;;;;;;;;5062049;28;20057;-63
2021/12/18 00:28:18;;;;;;;13.63;7.15;;;;;;;;;;5059738;28;20044;-63
2021/12/18 00:30:44;;;;;;;12.65;6.50;;;;;;;;;;5056458;28;20053;-63
2021/12/18 00:33:12;;;;;;;13.93;6.63;;;;;;;;;;5058942;28;20402;-64
2021/12/18 00:35:39;;;;;;;11.65;6.65;;;;;;;;;;5060054;28;20037;-63
2021/12/18 00:38:06;;;;;;;13.48;7.18;;;;;;;;;;5057511;28;20044;-63
2021/12/18 00:40:45;;;;;;;12.13;6.32;;;;;;;;;;5061750;28;20055;-63
2021/12/18 00:43:27;;;;;;;;;;;;;;;;;;5060603;28;20048;-64
2021/12/18 00:45:53;;;;;;;14.25;7.63;;;;;;;;;;5045805;28;19925;-63
2021/12/18 00:48:20;;;;;;;12.43;7.53;;;;;;;;;;5058350;28;20052;-63
2021/12/18 00:50:47;;;;;;;15.07;8.18;;;;;;;;;;5059013;28;20044;-63
2021/12/18 00:53:13;;;;;;;16.85;7.57;;;;;;;;;;5055777;28;20044;-64
2021/12/18 00:55:40;;;;;;;12.27;7.03;;;;;;;;;;5062442;28;20059;-63
2021/12/18 00:58:06;;;;;;;13.07;7.47;;;;;;;;;;5063076;28;20048;-64
2021/12/18 01:00:33;;;;;;;15.45;8.20;;;;;;;;;;5061619;28;20052;-63
2021/12/18 01:03:01;;;;;;;17.05;10.93;;;;;;;;;;5062036;28;20044;-64
2021/12/18 01:05:29;;;;;;;13.07;7.85;;;;;;;;;;5062068;28;20502;-64
2021/12/18 01:07:57;;;;;;;11.03;5.93;;;;;;;;;;5061238;28;20272;-63
2021/12/18 01:13:15;;;;;;;9.32;5.57;;;;;;;;;;5063219;28;20049;-64
2021/12/18 01:15:48;;;;;;;8.75;5.18;;;;;;;;;;5058373;28;20048;-63
2021/12/18 01:23:44;;;;;;;9.05;5.35;;;;;;;;;;5058425;28;20503;-63
2021/12/18 01:26:10;;;;;;;10.13;5.60;;;;;;;;;;5053396;28;20051;-64
2021/12/18 01:28:37;;;;;;;9.52;4.43;;;;;;;;;;5053981;28;20044;-63
2021/12/18 01:31:03;;;;;;;9.65;5.13;;;;;;;;;;5053217;28;20048;-63
2021/12/18 01:33:30;;;;;;;7.97;4.45;;;;;;;;;;5057776;28;20044;-63
2021/12/18 01:35:59;;;;;;;9.98;5.07;;;;;;;;;;5057325;28;20522;-64
2021/12/18 01:38:28;;;;;;;8.80;4.55;;;;;;;;;;5062058;28;20048;-63
2021/12/18 01:40:55;;;;;;;7.75;4.68;;;;;;;;;;5060199;28;20040;-63
2021/12/18 01:44:20;;;;;;;8.23;5.00;;;;;;;;;;5059244;28;20574;-64
2021/12/18 01:52:03;;;;;;;7.97;4.38;;;;;;;;;;5003134;28;20534;-63
2021/12/18 01:54:30;;;;;;;7.53;4.15;;;;;;;;;;5000567;28;20460;-63
2021/12/18 01:56:59;;;;;;;7.38;4.30;;;;;;;;;;5041260;28;20048;-64
2021/12/18 01:59:32;;;;;;;7.35;4.00;;;;;;;;;;5060394;28;20056;-63
2021/12/18 02:01:58;;;;;;;8.43;4.30;;;;;;;;;;5060367;28;20062;-63
2021/12/18 02:04:25;;;;;;;7.25;4.00;;;;;;;;;;5061481;28;20416;-63
2021/12/18 02:06:51;;;;;;;6.38;4.22;;;;;;;;;;5060050;28;20053;-63
2021/12/18 02:09:18;;;;;;;8.35;4.43;;;;;;;;;;5061887;28;20052;-63
2021/12/18 02:11:45;;;;;;;8.48;4.57;;;;;;;;;;5058539;28;20052;-63
2021/12/18 02:19:31;;;;;;;8.15;4.30;;;;;;;;;;5056285;28;20052;-64
2021/12/18 02:20:22;;;;;;;8.60;4.28;;;;;;;;;;5059844;28;20048;-64
2021/12/18 02:22:49;;;;;;;7.47;4.10;;;;;;;;;;5061189;28;20051;-64
2021/12/18 02:25:16;;;;;;;8.93;4.47;;;;;;;;;;5057689;28;20055;-63
2021/12/18 02:27:42;;;;;;;7.55;4.10;;;;;;;;;;5058302;28;20652;-64
2021/12/18 02:30:11;;;;;;;7.85;4.15;;;;;;;;;;5061257;28;20048;-65
2021/12/18 02:32:37;;;;;;;7.10;4.22;;;;;;;;;;5060034;28;20071;-64
2021/12/18 02:35:05;;;;;;;8.43;4.05;;;;;;;;;;5058121;28;20433;-64
2021/12/18 02:37:39;;;;;;;7.60;4.28;;;;;;;;;;5063784;28;20052;-64
2021/12/18 02:42:35;;;;;;;6.93;4.00;;;;;;;;;;5065162;28;20048;-64
2021/12/18 02:45:02;;;;;;;9.88;5.20;;;;;;;;;;5058607;28;20056;-63
2021/12/18 02:47:29;;;;;;;7.47;4.30;;;;;;;;;;5066296;28;20051;-64
2021/12/18 02:49:55;;;;;;;8.13;4.60;;;;;;;;;;5066463;28;20044;-64
2021/12/18 02:52:26;;;;;;;8.93;4.82;;;;;;;;;;5058174;28;20049;-64
2021/12/18 02:54:53;;;;;;;7.82;4.45;;;;;;;;;;5055863;28;20547;-64
2021/12/18 02:57:19;;;;;;;8.07;4.60;;;;;;;;;;5059950;28;20054;-64
2021/12/18 02:59:47;;;;;;;9.57;5.07;;;;;;;;;;5062169;28;20052;-65
2021/12/18 03:02:14;;;;;;;8.80;4.70;;;;;;;;;;5060636;28;20044;-64
2021/12/18 03:04:43;;;;;;;8.98;4.93;;;;;;;;;;5065753;28;20693;-63
2021/12/18 03:07:14;;;;;;;6.93;4.00;;;;;;;;;;5063188;28;20135;-64
2021/12/18 03:21:38;;;;;;;7.18;4.28;;;;;;;;;;5059072;28;20056;-64
2021/12/18 03:26:25;;;;;;;10.02;4.68;;;;;;;;;;5050440;28;20049;-64
2021/12/18 03:28:51;;;;;;;6.60;3.47;;;;;;;;;;5061511;28;20055;-65
2021/12/18 03:31:17;;;;;;;8.23;4.32;;;;;;;;;;5061775;28;20132;-64
2021/12/18 03:33:44;;;;;;;7.00;4.25;;;;;;;;;;5065996;28;20056;-63
2021/12/18 03:36:10;;;;;;;8.35;4.38;;;;;;;;;;5056334;28;20689;-64
2021/12/18 03:38:36;;;;;;;7.65;4.30;;;;;;;;;;5056344;28;20516;-63
2021/12/18 03:41:03;;;;;;;9.30;4.43;;;;;;;;;;5058229;28;20421;-63
2021/12/18 03:43:29;;;;;;;8.48;4.72;;;;;;;;;;5062370;28;20211;-63
2021/12/18 03:45:55;;;;;;;8.68;4.40;;;;;;;;;;5063987;28;20292;-63
2021/12/18 03:48:22;;;;;;;9.45;4.82;;;;;;;;;;5062605;28;20075;-64
2021/12/18 03:50:50;;;;;;;8.00;4.45;;;;;;;;;;5060582;28;20040;-65
2021/12/18 03:53:16;;;;;;;8.98;4.65;;;;;;;;;;5054455;28;20095;-64
2021/12/18 03:55:43;;;;;;;9.32;5.13;;;;;;;;;;5063569;28;20581;-63
2021/12/18 03:58:09;;;;;;;8.48;4.68;;;;;;;;;;5061129;28;20457;-63
2021/12/18 04:00:36;;;;;;;9.40;4.93;;;;;;;;;;5050908;28;20056;-63
2021/12/18 04:03:03;;;;;;;8.55;4.28;;;;;;;;;;5062746;28;20118;-63
2021/12/18 04:05:30;;;;;;;8.30;4.50;;;;;;;;;;5063945;28;20052;-64
2021/12/18 04:08:08;;;;;;;7.72;4.25;;;;;;;;;;5064278;28;20056;-64
2021/12/18 04:10:38;;;;;;;7.85;4.03;;;;;;;;;;5061853;28;20143;-64
2021/12/18 04:13:06;;;;;;;6.80;3.47;;;;;;;;;;5057071;28;20783;-64
2021/12/18 04:15:32;;;;;;;8.35;4.47;;;;;;;;;;5066254;28;20047;-63
2021/12/18 04:17:59;;;;;;;6.35;3.72;;;;;;;;;;5062762;28;20555;-64
2021/12/18 04:20:25;;;;;;;7.07;4.30;;;;;;;;;;5064683;28;20934;-64
2021/12/18 04:22:52;;;;;;;7.32;3.88;;;;;;;;;;5062013;28;20044;-64
2021/12/18 04:25:19;;;;;;;8.13;3.90;;;;;;;;;;5060628;28;20533;-64
2021/12/18 04:27:45;;;;;;;7.45;3.90;;;;;;;;;;5064841;28;20045;-63
2021/12/18 04:30:12;;;;;;;7.53;4.10;;;;;;;;;;5056859;28;20477;-64
2021/12/18 04:32:39;;;;;;;7.95;4.00;;;;;;;;;;5057752;28;20052;-63
2021/12/18 04:35:05;;;;;;;7.13;3.92;;;;;;;;;;5057930;28;20044;-63
2021/12/18 04:37:32;;;;;;;6.95;3.80;;;;;;;;;;5048528;28;20045;-63
2021/12/18 04:39:59;;;;;;;7.15;3.80;;;;;;;;;;5055447;28;20044;-63
2021/12/18 04:42:27;;;;;;;7.53;3.47;;;;;;;;;;5055862;28;20049;-63
2021/12/18 04:44:53;;;;;;;6.45;3.20;;;;;;;;;;5055099;28;20474;-63
2021/12/18 04:47:19;;;;;;;6.45;2.95;;;;;;;;;;5055120;28;20078;-63
2021/12/18 04:49:45;;;;;;;6.32;3.03;;;;;;;;;;5054753;28;20456;-63
2021/12/18 04:52:12;;;;;;;4.85;2.70;;;;;;;;;;5056303;28;20048;-64
2021/12/18 04:54:38;;;;;;;5.55;2.63;;;;;;;;;;5056146;28;20048;-64
2021/12/18 04:57:04;;;;;;;5.28;2.55;;;;;;;;;;5057809;28;20052;-64
2021/12/18 04:59:31;;;;;;;5.45;2.65;;;;;;;;;;5064333;28;20051;-65
2021/12/18 05:01:58;;;;;;;5.78;2.95;;;;;;;;;;5060430;28;20269;-64
2021/12/18 05:04:24;;;;;;;6.45;2.70;;;;;;;;;;5061339;28;20060;-63
2021/12/18 05:06:52;;;;;;;5.45;2.70;;;;;;;;;;5057680;28;20084;-63
2021/12/18 05:09:19;;;;;;;7.47;3.05;;;;;;;;;;5059820;28;20156;-63
2021/12/18 05:11:45;;;;;;;7.30;2.92;;;;;;;;;;5058702;28;20060;-63
2021/12/18 05:14:12;;;;;;;5.75;2.95;;;;;;;;;;5062030;28;20538;-63
2021/12/18 05:16:38;;;;;;;6.93;3.42;;;;;;;;;;5062869;28;20079;-63
2021/12/18 05:19:05;;;;;;;5.70;2.92;;;;;;;;;;5056396;28;20049;-63
2021/12/18 05:21:31;;;;;;;5.07;2.70;;;;;;;;;;5061877;28;20056;-64
2021/12/18 05:23:58;;;;;;;6.82;3.15;;;;;;;;;;5064068;28;20090;-63
2021/12/18 05:26:25;;;;;;;6.45;3.30;;;;;;;;;;5062948;28;20565;-64
2021/12/18 05:28:51;;;;;;;6.65;3.20;;;;;;;;;;5062389;28;20051;-63
2021/12/18 05:31:17;;;;;;;8.05;3.70;;;;;;;;;;5063058;28;20048;-63
2021/12/18 05:33:46;;;;;;;6.05;3.20;;;;;;;;;;5063058;28;20423;-64
2021/12/18 05:39:05;;;;;;;7.82;3.65;;;;;;;;;;5061634;28;19924;-63
2021/12/18 05:41:32;;;;;;;8.40;3.53;;;;;;;;;;5062698;28;20048;-63
2021/12/18 05:43:58;;;;;;;6.85;3.60;;;;;;;;;;5059413;28;20102;-63
2021/12/18 05:46:25;;;;;;;9.48;3.90;;;;;;;;;;5058999;28;20044;-64
2021/12/18 05:48:52;;;;;;;8.63;3.83;;;;;;;;;;5061337;28;20048;-64
2021/12/18 05:51:21;;;;;;;10.82;4.15;;;;;;;;;;5060590;28;20056;-63
2021/12/18 05:53:47;;;;;;;9.80;4.57;;;;;;;;;;5059275;28;20048;-64
2021/12/18 05:56:13;;;;;;;12.52;4.47;;;;;;;;;;5061190;28;20044;-64
2021/12/18 05:58:41;;;;;;;9.27;4.18;;;;;;;;;;5060952;28;20043;-64
2021/12/18 06:01:07;;;;;;;8.60;3.85;;;;;;;;;;5061262;28;20385;-64
2021/12/18 06:03:33;;;;;;;8.77;3.80;;;;;;;;;;5062646;28;20052;-63
2021/12/18 06:06:00;;;;;;;11.15;5.38;;;;;;;;;;5060792;28;20623;-63
2021/12/18 06:08:27;;;;;;;14.15;4.20;;;;;;;;;;5055964;28;20056;-63
2021/12/18 06:10:53;;;;;;;15.05;5.03;;;;;;;;;;5055733;28;20048;-63
2021/12/18 06:13:19;;;;;;;11.27;4.93;;;;;;;;;;5055821;28;20047;-63
2021/12/18 06:15:46;;;;;;;10.65;4.63;;;;;;;;;;5062860;28;20040;-62
2021/12/18 06:18:12;;;;;;;11.38;4.03;;;;;;;;;;5058420;28;20052;-63
2021/12/18 06:20:38;;;;;;;9.18;4.00;;;;;;;;;;5061647;28;20048;-63
2021/12/18 06:23:04;;;;;;;9.55;4.18;;;;;;;;;;5058360;28;20064;-63
2021/12/18 06:25:31;;;;;;;8.57;3.85;;;;;;;;;;5057538;28;20092;-63
2021/12/18 06:27:57;;;;;;;7.75;3.55;;;;;;;;;;5057849;28;20087;-63
2021/12/18 06:30:23;;;;;;;8.00;3.55;;;;;;;;;;5047437;28;20052;-63
2021/12/18 06:32:50;;;;;;;7.38;3.50;;;;;;;;;;5058689;28;20044;-63
2021/12/18 06:35:16;;;;;;;7.25;3.58;;;;;;;;;;5055263;28;20584;-63
2021/12/18 06:37:42;;;;;;;7.30;3.20;;;;;;;;;;5052550;28;20421;-63
2021/12/18 06:40:09;;;;;;;7.75;2.78;;;;;;;;;;5066267;28;20494;-63
2021/12/18 06:42:37;;;;;;;5.77;2.83;;;;;;;;;;5065419;28;20044;-63
2021/12/18 06:45:04;;;;;;;5.35;2.53;;;;;;;;;;5063959;28;20061;-62
2021/12/18 06:47:30;;;;;;;5.30;2.13;;;;;;;;;;5066687;28;20491;-63
2021/12/18 06:49:57;;;;;;;6.53;2.83;;;;;;;;;;5058093;28;20485;-63
2021/12/18 06:52:23;;;;;;;5.63;2.60;;;;;;;;;;5061210;28;20056;-63
2021/12/18 06:54:49;;;;;;;4.25;2.22;;;;;;;;;;5055834;28;20045;-63
2021/12/18 06:57:19;;;;;;;4.93;2.17;;;;;;;;;;5061616;28;20045;-63
2021/12/18 06:59:46;;;;;;;5.40;2.17;;;;;;;;;;5062562;28;20048;-63
2021/12/18 07:02:12;;;;;;;5.28;1.98;;;;;;;;;;5059263;28;20051;-63
2021/12/18 07:04:38;;;;;;;4.50;2.10;;;;;;;;;;5060421;28;20060;-63
2021/12/18 07:07:05;;;;;;;5.35;2.05;;;;;;;;;;5057439;28;20045;-63
2021/12/18 07:09:31;;;;;;;4.18;2.05;;;;;;;;;;5060456;28;20189;-63
2021/12/18 07:11:58;;;;;;;6.50;1.75;;;;;;;;;;5061548;28;20048;-63
2021/12/18 07:14:26;;;;;;;4.30;1.98;;;;;;;;;;5064306;28;20052;-64
2021/12/18 07:16:52;;;;;;;3.60;1.73;;;;;;;;;;5048886;28;20110;-63
2021/12/18 07:19:18;;;;;;;2.85;1.40;;;;;;;;;;5064523;28;20556;-63
2021/12/18 07:21:45;;;;;;;3.08;1.40;;;;;;;;;;5058924;28;20498;-64
2021/12/18 07:24:11;;;;;;;3.28;1.27;;;;;;;;;;5061329;28;20707;-63
2021/12/18 07:26:37;;;;;;;2.63;1.35;;;;;;;;;;5058695;28;20052;-63
2021/12/18 07:29:04;;;;;;;4.65;1.73;;;;;;;;;;5061927;28;20048;-63
2021/12/18 07:31:30;;;;;;;2.70;1.33;;;;;;;;;;5062608;28;20508;-64
2021/12/18 07:33:56;;;;;;;2.75;1.42;;;;;;;;;;5063759;28;20048;-63
2021/12/18 07:36:23;;;;;;;3.25;1.35;;;;;;;;;;5058573;28;20136;-63
2021/12/18 07:38:50;;;;;;;1.73;1.20;;;;;;;;;;5057071;28;20047;-63
2021/12/18 07:41:16;;;;;;;2.42;1.30;;;;;;;;;;5044697;28;20577;-62
2021/12/18 07:43:42;;;;;;;2.95;1.05;;;;;;;;;;5054393;28;20059;-62
2021/12/18 07:46:08;;;;;;;4.22;1.23;;;;;;;;;;5059843;28;20055;-63
2021/12/18 07:48:35;;;;;;;1.38;0.70;;;;;;;;;;5056542;28;20049;-63
2021/12/18 07:51:01;;;;;;;2.15;1.15;;;;;;;;;;5061206;28;20852;-62
2021/12/18 07:53:28;;;;;;;1.48;0.90;;;;;;;;;;5061568;28;20079;-63
2021/12/18 07:55:54;;;;;;;1.38;0.82;;;;;;;;;;5060756;28;20055;-61
2021/12/18 07:58:20;;;;;;;2.05;1.00;;;;;;;;;;5064508;28;20052;-63
2021/12/18 08:00:47;;;;;;;1.80;0.90;;;;;;;;;;5046748;28;20048;-62
2021/12/18 08:03:13;;;;;;;3.45;0.93;;;;;;;;;;5063633;28;20705;-63
2021/12/18 08:05:40;;;;;;;2.45;0.80;;;;;;;;;;5063232;28;20080;-62
2021/12/18 08:08:06;;;;;;;1.90;1.00;;;;;;;;;;5065584;28;20048;-63
2021/12/18 08:10:33;;;;;;;3.08;1.15;;;;;;;;;;5059479;28;20064;-63
2021/12/18 08:12:59;;;;;;;1.33;0.77;;;;;;;;;;5064380;28;20068;-62
2021/12/18 08:15:25;;;;;;;1.85;0.80;;;;;;;;;;5063038;28;20044;-62
2021/12/18 08:17:52;;;;;;;4.20;1.02;;;;;;;;;;5063266;28;20041;-62
2021/12/18 08:20:19;;;;;;;1.58;1.00;;;;;;;;;;5063426;28;20052;-62
2021/12/18 08:22:46;;;;;;;1.95;0.80;;;;;;;;;;5061519;28;20048;-62
2021/12/18 08:25:12;;;;;;;1.77;0.88;;;;;;;;;;5063950;28;20052;-61
2021/12/18 08:27:38;;;;;;;2.03;1.13;;;;;;;;;;5062968;28;20147;-62
2021/12/18 08:30:05;;;;;;;2.92;1.48;;;;;;;;;;5058247;28;20090;-62
2021/12/18 08:32:31;;;;;;;4.03;1.05;;;;;;;;;;5064075;28;20429;-63
2021/12/18 08:34:58;;;;;;;2.92;1.10;;;;;;;;;;5061516;28;20482;-62
2021/12/18 08:37:24;;;;;;;1.05;0.80;;;;;;;;;;5062136;28;20147;-62
2021/12/18 08:39:51;;;;;;;1.08;0.65;;;;;;;;;;5062683;28;20044;-62
2021/12/18 08:42:17;;;;;;;1.42;0.88;;;;;;;;;;5059433;28;20516;-62
2021/12/18 08:44:43;;;;;;;1.70;0.93;;;;;;;;;;5062126;28;20048;-62
2021/12/18 08:47:10;;;;;;;1.80;0.95;;;;;;;;;;5045553;28;20063;-64
2021/12/18 08:49:38;;;;;;;5.47;2.65;;;;;;;;;;5056009;28;20107;-64
2021/12/18 08:52:04;;;;;;;2.63;1.42;;;;;;;;;;5060428;28;20144;-63
2021/12/18 08:54:30;;;;;;;1.52;0.90;;;;;;;;;;5054978;28;20044;-63
2021/12/18 08:57:08;;;;;;;1.90;0.85;;;;;;;;;;5063096;28;20190;-63
2021/12/18 08:59:34;;;;;;;3.33;0.70;;;;;;;;;;5064031;28;20056;-63
2021/12/18 09:02:00;;;;;;;1.63;0.80;;;;;;;;;;5059858;28;20044;-63
2021/12/18 09:04:27;;;;;;;1.45;0.80;;;;;;;;;;5059156;28;20595;-63
2021/12/18 09:06:53;;;;;;;1.20;0.65;;;;;;;;;;5062677;28;20062;-63
2021/12/18 09:09:20;;;;;;;0.88;0.63;;;;;;;;;;5061899;28;20071;-64
2021/12/18 09:11:46;;;;;;;1.45;0.70;;;;;;;;;;5053347;28;20064;-63
2021/12/18 09:14:13;;;;;;;1.02;0.70;;;;;;;;;;5062473;28;20598;-63
2021/12/18 09:16:39;;;;;;;2.15;1.13;;;;;;;;;;5060583;28;20048;-62
2021/12/18 09:19:05;;;;;;;1.65;0.90;;;;;;;;;;5058335;28;20565;-63
2021/12/18 09:21:32;;;;;;;1.23;0.77;;;;;;;;;;5061810;28;20059;-62
2021/12/18 09:23:58;;;;;;;1.98;1.20;;;;;;;;;;5063978;28;20115;-62
2021/12/18 09:26:25;;;;;;;1.48;0.93;;;;;;;;;;5058841;28;20048;-63
2021/12/18 09:28:52;;;;;;;2.72;0.95;;;;;;;;;;5061206;28;20063;-61
2021/12/18 09:31:18;;;;;;;1.73;0.93;;;;;;;;;;5062512;28;20413;-64
2021/12/18 09:33:46;;;;;;;2.40;1.10;;;;;;;;;;5063647;28;20052;-62
2021/12/18 09:36:13;;;;;;;1.75;0.90;;;;;;;;;;5061272;28;20055;-62
2021/12/18 09:38:39;;;;;;;1.25;0.93;;;;;;;;;;5062508;28;20044;-61
2021/12/18 09:41:06;;;;;;;3.17;1.15;;;;;;;;;;5061867;28;20144;-62
2021/12/18 09:43:34;;;;;;;1.65;1.05;;;;;;;;;;5059031;28;20163;-62
2021/12/18 09:46:05;;;;;;;3.15;1.70;;;;;;;;;;5060677;28;20489;-61
2021/12/18 09:48:31;;;;;;;3.92;1.50;;;;;;;;;;5060836;28;20055;-62
2021/12/18 09:50:58;;;;;;;3.45;1.45;;;;;;;;;;5062317;28;20049;-63
2021/12/18 09:53:25;;;;;;;2.78;1.48;;;;;;;;;;5052486;28;20523;-62
2021/12/18 09:55:51;;;;;;;3.85;1.65;;;;;;;;;;5053659;28;20564;-63
2021/12/18 09:58:18;;;;;;;4.95;2.17;;;;;;;;;;5052846;28;20482;-62
2021/12/18 10:00:44;;;;;;;2.88;1.73;;;;;;;;;;5056815;28;20037;-62
2021/12/18 10:03:11;;;;;;;2.60;1.60;;;;;;;;;;5058961;28;20044;-62
2021/12/18 10:05:38;;;;;;;2.83;1.55;;;;;;;;;;5059106;28;20052;-62
2021/12/18 10:08:09;;;;;;;2.08;1.23;;;;;;;;;;5061975;28;20045;-62
2021/12/18 10:10:36;;;;;;;2.28;1.35;;;;;;;;;;5052978;28;20095;-64
2021/12/18 10:13:04;;;;;;;4.00;2.30;;;;;;;;;;5062471;28;20052;-63
2021/12/18 10:15:31;;;;;;;3.73;2.10;;;;;;;;;;5061947;28;20052;-64
2021/12/18 10:18:08;;;;;;;3.40;2.03;;;;;;;;;;5059784;28;20141;-62
2021/12/18 10:20:34;;;;;;;2.55;1.50;;;;;;;;;;5056858;28;20076;-64
2021/12/18 10:23:04;;;;;;;2.10;1.30;;;;;;;;;;5058525;28;20052;-64
2021/12/18 10:25:32;;;;;;;2.47;1.48;;;;;;;;;;5060942;28;20067;-61
2021/12/18 10:28:02;;;;;;;2.80;1.65;;;;;;;;;;5058243;28;20064;-64
2021/12/18 10:30:29;;;;;;;2.53;1.25;;;;;;;;;;5055148;28;20131;-64
2021/12/18 10:33:05;;;;;;;1.83;0.82;;;;;;;;;;5053836;28;20061;-64
2021/12/18 10:35:35;;;;;;;4.75;2.05;;;;;;;;;;5052567;28;20070;-64
2021/12/18 10:38:01;;;;;;;3.58;1.60;;;;;;;;;;5056921;28;20048;-64
2021/12/18 10:40:39;;;;;;;2.22;1.00;;;;;;;;;;5054156;28;20501;-64
2021/12/18 10:43:06;;;;;;;1.35;1.00;;;;;;;;;;5062463;28;20036;-64
2021/12/18 10:45:33;;;;;;;2.95;1.05;;;;;;;;;;5059231;28;20041;-64
2021/12/18 10:48:08;;;;;;;3.55;1.50;;;;;;;;;;5052869;28;20036;-62
2021/12/18 10:50:43;;;;;;;2.42;1.60;;;;;;;;;;5053900;28;20555;-64
2021/12/18 10:53:09;;;;;;;1.98;1.10;;;;;;;;;;5053054;28;20040;-62
2021/12/18 10:55:38;;;;;;;1.27;0.93;;;;;;;;;;5052115;28;20052;-64
2021/12/18 10:58:05;;;;;;;3.97;1.85;;;;;;;;;;5057341;28;20051;-63
2021/12/18 11:00:41;;;;;;;1.63;1.10;;;;;;;;;;5055612;28;20059;-62
2021/12/18 11:03:27;;;;;;;1.95;1.10;;;;;;;;;;5056075;28;20076;-62
2021/12/18 11:06:07;;;;;;;1.90;1.05;;;;;;;;;;5056020;28;20106;-62
2021/12/18 11:08:37;;;;;;;2.25;1.30;;;;;;;;;;5063668;28;20512;-63
2021/12/18 11:13:51;;;;;;;2.17;1.33;;;;;;;;;;5062286;28;20048;-63
2021/12/18 11:16:18;;;;;;;3.60;1.50;;;;;;;;;;5059485;28;20046;-63
2021/12/18 11:18:45;;;;;;;2.45;1.48;;;;;;;;;;5066083;28;20045;-63
2021/12/18 11:21:11;;;;;;;2.08;1.50;;;;;;;;;;5060997;28;20426;-63
2021/12/18 11:23:40;;;;;;;2.78;1.58;;;;;;;;;;5062568;28;20048;-63
2021/12/18 11:26:08;;;;;;;2.80;1.52;;;;;;;;;;5064492;28;20048;-62
2021/12/18 11:28:36;;;;;;;2.40;1.60;;;;;;;;;;5059053;28;20063;-63
2021/12/18 11:31:03;;;;;;;2.70;1.55;;;;;;;;;;5057488;28;20289;-63
2021/12/18 11:33:31;;;;;;;2.13;1.35;;;;;;;;;;5061178;28;20449;-63
2021/12/18 11:36:00;;;;;;;2.85;1.60;;;;;;;;;;5059238;28;20041;-62
2021/12/18 11:38:26;;;;;;;1.85;1.33;;;;;;;;;;5062748;28;20040;-61
2021/12/18 11:40:53;;;;;;;2.55;1.60;;;;;;;;;;5056341;28;20053;-63
2021/12/18 11:43:33;;;;;;;2.60;1.27;;;;;;;;;;5064308;28;20056;-63
2021/12/18 11:46:00;;;;;;;1.95;1.45;;;;;;;;;;5054546;28;20044;-63
2021/12/18 11:48:26;;;;;;;2.60;1.38;;;;;;;;;;5059759;28;20052;-63
2021/12/18 11:50:53;;;;;;;2.35;1.30;;;;;;;;;;5065902;28;20052;-63
2021/12/18 11:53:30;;;;;;;0.70;0.60;;;;;;;;;;5058228;28;20057;-63
2021/12/18 11:55:58;;;;;;;0.80;0.70;;;;;;;;;;5045525;28;20110;-63
2021/12/18 11:58:35;;;;;;;1.05;0.80;;;;;;;;;;5044626;28;20763;-62
2021/12/18 12:01:11;;;;;;;1.98;0.90;;;;;;;;;;5063169;28;20093;-63
2021/12/18 12:03:40;;;;;;;1.25;0.90;;;;;;;;;;5063183;28;20048;-62
2021/12/18 12:06:26;;;;;;;1.92;0.85;;;;;;;;;;5062884;28;20076;-63
2021/12/18 12:09:14;;;;;;;1.45;0.85;;;;;;;;;;5064126;28;20095;-62
2021/12/18 12:11:49;;;;;;;2.38;0.90;;;;;;;;;;5060512;28;20053;-63
2021/12/18 12:14:17;;;;;;;2.38;1.00;;;;;;;;;;5062512;28;20053;-62
2021/12/18 12:16:46;;;;;;;2.03;1.25;;;;;;;;;;5061928;28;20056;-62
2021/12/18 12:19:14;;;;;;;2.58;1.58;;;;;;;;;;5046432;28;20515;-62
2021/12/18 12:21:47;;;;;;;2.58;1.50;;;;;;;;;;5062427;28;20059;-62
2021/12/18 12:24:15;;;;;;;2.58;1.60;;;;;;;;;;5062203;28;20082;-62
2021/12/18 12:26:42;;;;;;;2.45;1.50;;;;;;;;;;5063586;28;20045;-63
2021/12/18 12:29:09;;;;;;;2.92;1.63;;;;;;;;;;5062230;28;20044;-63
2021/12/18 12:31:36;;;;;;;2.45;1.60;;;;;;;;;;5062458;28;20477;-63
2021/12/18 12:34:17;;;;;;;3.67;1.33;;;;;;;;;;5062321;28;20177;-63
2021/12/18 12:36:45;;;;;;;4.93;2.78;;;;;;;;;;5043820;28;20055;-62
2021/12/18 12:39:14;;;;;;;3.35;2.25;;;;;;;;;;5054998;28;20059;-63
2021/12/18 12:41:42;;;;;;;4.03;2.22;;;;;;;;;;5055060;28;20764;-63
2021/12/18 12:44:16;;;;;;;2.55;1.48;;;;;;;;;;5054780;28;20087;-63
2021/12/18 12:46:44;;;;;;;2.22;1.27;;;;;;;;;;5057625;28;20534;-63
2021/12/18 12:49:19;;;;;;;4.03;1.80;;;;;;;;;;5063346;28;20055;-63
2021/12/18 12:52:07;;;;;;;3.38;1.67;;;;;;;;;;5064524;28;20292;-62
2021/12/18 12:54:41;;;;;;;1.77;0.98;;;;;;;;;;5061800;28;20057;-63
2021/12/18 12:57:29;;;;;;;1.20;0.90;;;;;;;;;;5062830;28;20059;-63
2021/12/18 12:59:58;;;;;;;1.75;0.93;;;;;;;;;;5025095;28;20048;-61
2021/12/18 13:02:28;;;;;;;1.88;1.10;;;;;;;;;;5054384;28;20049;-63
2021/12/18 13:05:05;;;;;;;3.20;1.10;;;;;;;;;;5054546;28;20142;-63
2021/12/18 13:07:32;;;;;;;0.98;0.75;;;;;;;;;;5063410;28;20064;-63
2021/12/18 13:09:58;;;;;;;1.10;0.80;;;;;;;;;;5062194;28;20060;-63
2021/12/18 13:12:24;;;;;;;0.90;0.75;;;;;;;;;;5054530;28;20057;-64
2021/12/18 13:14:52;;;;;;;2.42;1.02;;;;;;;;;;5054664;28;20055;-63
2021/12/18 13:17:18;;;;;;;4.10;1.07;;;;;;;;;;5060539;28;20063;-63
2021/12/18 13:19:54;;;;;;;1.55;0.70;;;;;;;;;;5061580;28;20111;-64
2021/12/18 13:22:24;;;;;;;1.77;0.80;;;;;;;;;;5045296;28;20053;-63
2021/12/18 13:25:03;;;;;;;2.53;1.10;;;;;;;;;;5061052;28;20063;-63
2021/12/18 13:27:30;;;;;;;3.42;1.90;;;;;;;;;;5061769;28;20064;-64
2021/12/18 13:30:13;;;;;;;1.45;0.88;;;;;;;;;;5061325;28;20048;-64
2021/12/18 13:32:59;;;;;;;0.68;0.60;;;;;;;;;;5061127;28;20048;-63
2021/12/18 13:35:27;;;;;;;2.35;0.80;;;;;;;;;;5061403;28;20482;-64
2021/12/18 13:37:57;;;;;;;0.63;0.50;;;;;;;;;;5061574;28;20714;-64
2021/12/18 13:40:23;;;;;;;1.10;0.70;;;;;;;;;;5064760;28;20040;-64
2021/12/18 13:43:22;;;;;;;1.00;0.68;;;;;;;;;;5059865;28;20083;-64
2021/12/18 13:45:51;;;;;;;2.90;0.82;;;;;;;;;;5013630;28;20053;-64
2021/12/18 13:48:18;;;;;;;1.13;0.77;;;;;;;;;;5056373;28;20045;-64
2021/12/18 13:50:56;;;;;;;1.23;0.70;;;;;;;;;;5058570;28;20084;-64
2021/12/18 13:53:22;;;;;;;2.38;1.25;;;;;;;;;;5059279;28;20067;-63
2021/12/18 13:55:56;;;;;;;1.77;1.20;;;;;;;;;;5054676;28;20421;-63
2021/12/18 13:58:25;;;;;;;1.80;1.02;;;;;;;;;;5058980;28;20044;-64
2021/12/18 14:01:04;;;;;;;2.03;1.27;;;;;;;;;;5059449;28;20049;-63
2021/12/18 14:03:30;;;;;;;;;;;;;;;;;;5063022;28;20472;-64
2021/12/18 14:05:58;;;;;;;1.83;0.90;;;;;;;;;;5061063;28;19928;-64
2021/12/18 14:08:25;;;;;;;1.00;0.87;;;;;;;;;;5062347;28;20060;-63
2021/12/18 14:10:52;;;;;;;1.13;0.82;;;;;;;;;;5055841;28;20524;-64
2021/12/18 14:13:18;;;;;;;1.67;0.90;;;;;;;;;;5050821;28;20059;-63
2021/12/18 14:15:44;;;;;;;1.15;0.88;;;;;;;;;;5056104;28;20052;-63
2021/12/18 14:18:30;;;;;;;1.17;0.90;;;;;;;;;;5061426;28;20047;-64
2021/12/18 14:20:56;;;;;;;1.05;0.85;;;;;;;;;;5060116;28;20891;-64
2021/12/18 14:23:30;;;;;;;1.00;0.75;;;;;;;;;;5060462;28;20052;-63
2021/12/18 14:26:17;;;;;;;2.05;1.00;;;;;;;;;;5058657;28;20040;-64
2021/12/18 14:28:44;;;;;;;2.10;1.45;;;;;;;;;;5043433;28;20723;-64
2021/12/18 14:31:30;;;;;;;3.88;2.00;;;;;;;;;;5052254;28;20379;-64
2021/12/18 14:34:01;;;;;;;3.70;1.83;;;;;;;;;;5053844;28;20513;-64
2021/12/18 14:36:39;;;;;;;2.25;1.02;;;;;;;;;;5056901;28;20052;-63
2021/12/18 14:39:05;;;;;;;1.40;0.95;;;;;;;;;;5061747;28;20063;-64
2021/12/18 14:41:33;;;;;;;1.52;1.23;;;;;;;;;;5057465;28;20935;-63
2021/12/18 14:43:59;;;;;;;2.13;1.42;;;;;;;;;;5063140;28;20048;-64
2021/12/18 14:46:26;;;;;;;1.88;1.13;;;;;;;;;;5064482;28;20060;-64
2021/12/18 14:48:52;;;;;;;2.60;1.05;;;;;;;;;;5064711;28;20150;-64
2021/12/18 14:51:25;;;;;;;1.27;0.98;;;;;;;;;;5061070;28;20053;-64
2021/12/18 14:53:58;;;;;;;2.65;1.00;;;;;;;;;;5060169;28;20784;-63
2021/12/18 14:56:25;;;;;;;3.30;2.10;;;;;;;;;;5062992;28;20209;-63
2021/12/18 14:58:52;;;;;;;3.47;1.77;;;;;;;;;;5066903;28;20523;-64
2021/12/18 15:01:20;;;;;;;4.47;1.50;;;;;;;;;;5062235;28;20040;-64
2021/12/18 15:03:53;;;;;;;3.78;1.17;;;;;;;;;;5054629;28;20051;-64
2021/12/18 15:06:28;;;;;;;3.88;1.73;;;;;;;;;;5059252;28;20044;-64
2021/12/18 15:09:10;;;;;;;6.55;3.92;;;;;;;;;;5022800;28;20057;-64
2021/12/18 15:11:46;;;;;;;4.78;2.92;;;;;;;;;;5055104;28;20060;-64
2021/12/18 15:14:14;;;;;;;3.83;2.17;;;;;;;;;;5063744;28;20171;-63
2021/12/18 15:16:46;;;;;;;5.28;2.35;;;;;;;;;;5061579;28;20402;-63
2021/12/18 15:19:15;;;;;;;4.05;2.35;;;;;;;;;;5057380;28;20059;-62
2021/12/18 15:21:43;;;;;;;3.88;2.33;;;;;;;;;;5063821;28;20059;-64
2021/12/18 15:24:10;;;;;;;3.50;2.15;;;;;;;;;;5063699;28;20040;-63
2021/12/18 15:26:36;;;;;;;4.90;2.53;;;;;;;;;;5063765;28;20086;-63
2021/12/18 15:29:04;;;;;;;5.20;3.13;;;;;;;;;;5061273;28;20079;-64
2021/12/18 15:31:30;;;;;;;4.82;3.03;;;;;;;;;;5065521;28;20054;-64